Time;durP1;ratioP1;P1;durP2;ratioP2;P2;SDS_P1;SDS_P2;PMS_P1;PMS_P2;Temp;Humidity;BMP_temperature;BMP_pressure;BME280_temperature;BME280_humidity;BME280_pressure;Samples;Min_cycle;Max_cycle;Signal;HPM_P1;HPM_P2
2022/10/02 00:00:59;;;;;;;;;;;12.60;99.90;;;;;;5087837;28;20107;-63
2022/10/02 00:03:30;;;;;;;;;;;12.60;99.90;;;;;;5086822;28;19990;-64
2022/10/02 00:06:00;;;;;;;;;;;12.50;99.90;;;;;;5091271;28;19972;-63
2022/10/02 00:08:30;;;;;;;;;;;12.60;99.90;;;;;;5091933;28;19966;-63
2022/10/02 00:11:01;;;;;;;;;;;12.60;99.90;;;;;;5091576;28;19965;-64
2022/10/02 00:13:33;;;;;;;;;;;12.60;99.90;;;;;;5091413;28;19997;-63
2022/10/02 00:16:02;;;;;;;;;;;12.60;99.90;;;;;;5091660;28;20391;-63
2022/10/02 00:18:31;;;;;;;;;;;12.70;99.90;;;;;;5091715;28;19966;-63
2022/10/02 00:21:00;;;;;;;;;;;12.70;99.90;;;;;;5086574;28;20418;-63
2022/10/02 00:23:32;;;;;;;;;;;12.70;99.90;;;;;;5091485;28;19963;-63
2022/10/02 00:26:03;;;;;;;;;;;12.70;99.90;;;;;;5090562;28;20326;-63
2022/10/02 00:28:35;;;;;;;;;;;12.60;99.90;;;;;;5085068;28;20321;-63
2022/10/02 00:31:11;;;;;;;;;;;12.70;99.90;;;;;;5079638;28;20422;-63
2022/10/02 00:33:46;;;;;;;;;;;12.70;99.90;;;;;;5086583;28;20341;-63
2022/10/02 00:36:18;;;;;;;;;;;12.80;99.90;;;;;;5090610;28;20007;-64
2022/10/02 00:38:49;;;;;;;;;;;12.80;99.90;;;;;;5091154;28;19974;-63
2022/10/02 00:41:32;;;;;;;;;;;12.90;99.90;;;;;;5091157;28;19966;-63
2022/10/02 00:44:11;;;;;;;;;;;12.90;99.90;;;;;;5091306;28;19965;-63
2022/10/02 00:46:45;;;;;;;;;;;13.00;99.90;;;;;;5084608;28;19962;-63
2022/10/02 00:49:20;;;;;;;;;;;13.00;99.90;;;;;;5091169;28;19973;-63
2022/10/02 00:51:55;;;;;;;;;;;13.00;99.90;;;;;;5091055;28;19970;-63
2022/10/02 00:54:27;;;;;;;;;;;13.00;99.90;;;;;;5092577;28;20460;-63
2022/10/02 00:57:03;;;;;;;;;;;13.00;99.90;;;;;;5090924;28;19962;-63
2022/10/02 00:59:39;;;;;;;;;;;13.00;99.90;;;;;;5089587;28;19970;-63
2022/10/02 01:02:10;;;;;;;;;;;13.00;99.90;;;;;;5090877;28;19968;-63
2022/10/02 01:04:39;;;;;;;;;;;12.90;99.90;;;;;;5098535;28;19994;-63
2022/10/02 01:07:08;;;;;;;;;;;12.80;99.90;;;;;;5093826;28;19981;-63
2022/10/02 01:09:37;;;;;;;;;;;12.80;99.90;;;;;;5094353;28;20403;-64
2022/10/02 01:12:06;;;;;;;;;;;12.80;99.90;;;;;;5093970;28;19958;-63
2022/10/02 01:14:34;;;;;;;;;;;12.70;99.90;;;;;;5093982;28;20611;-63
2022/10/02 01:17:03;;;;;;;;;;;12.70;99.90;;;;;;5093122;28;19962;-63
2022/10/02 01:19:34;;;;;;;;;;;12.60;99.90;;;;;;5095284;28;19966;-63
2022/10/02 01:22:06;;;;;;;;;;;12.70;99.90;;;;;;5089145;28;19961;-62
2022/10/02 01:24:36;;;;;;;;;;;12.60;99.90;;;;;;5092976;28;20299;-64
2022/10/02 01:27:05;;;;;;;;;;;12.50;99.90;;;;;;5094731;28;19968;-63
2022/10/02 01:29:33;;;;;;;;;;;12.50;99.90;;;;;;5092921;28;20447;-63
2022/10/02 01:32:01;;;;;;;;;;;12.50;99.90;;;;;;5092022;28;19968;-63
2022/10/02 01:34:29;;;;;;;;;;;12.50;99.90;;;;;;5093074;28;19958;-63
2022/10/02 01:36:57;;;;;;;;;;;12.50;99.90;;;;;;5092960;28;19966;-64
2022/10/02 01:39:25;;;;;;;;;;;12.50;99.90;;;;;;5091437;28;19969;-63
2022/10/02 01:41:54;;;;;;;;;;;12.50;99.90;;;;;;5093593;28;20445;-63
2022/10/02 01:44:24;;;;;;;;;;;12.60;99.90;;;;;;5091475;28;19958;-63
2022/10/02 01:46:55;;;;;;;;;;;12.70;99.90;;;;;;5093560;28;19966;-63
2022/10/02 01:49:54;;;;;;;;;;;12.70;99.90;;;;;;5093016;28;20428;-63
2022/10/02 01:52:34;;;;;;;;;;;12.70;99.90;;;;;;5010839;28;20444;-63
2022/10/02 01:55:08;;;;;;;;;;;12.70;99.90;;;;;;5075911;28;20341;-63
2022/10/02 01:57:41;;;;;;;;;;;12.70;99.90;;;;;;5093442;28;19958;-63
2022/10/02 02:00:12;;;;;;;;;;;12.70;99.90;;;;;;5093309;28;19972;-63
2022/10/02 02:02:46;;;;;;;;;;;12.70;99.90;;;;;;5090825;28;19958;-64
2022/10/02 02:05:19;;;;;;;;;;;12.70;99.90;;;;;;5088022;28;19970;-63
2022/10/02 02:07:49;;;;;;;;;;;12.70;99.90;;;;;;5093295;28;19968;-63
2022/10/02 02:10:21;;;;;;;;;;;12.70;99.90;;;;;;5090642;28;19969;-63
2022/10/02 02:12:51;;;;;;;;;;;12.70;99.90;;;;;;5093000;28;20300;-63
2022/10/02 02:15:23;;;;;;;;;;;12.70;99.90;;;;;;5090285;28;20461;-63
2022/10/02 02:17:54;;;;;;;;;;;12.70;99.90;;;;;;5092498;28;20074;-63
2022/10/02 02:20:25;;;;;;;;;;;12.80;99.90;;;;;;5093119;28;19976;-63
2022/10/02 02:22:54;;;;;;;;;;;12.80;99.90;;;;;;5092427;28;20339;-63
2022/10/02 02:25:24;;;;;;;;;;;12.80;99.90;;;;;;5091884;28;20045;-63
2022/10/02 02:27:53;;;;;;;;;;;12.80;99.90;;;;;;5092560;28;19966;-63
2022/10/02 02:30:23;;;;;;;;;;;12.80;99.90;;;;;;5088724;28;20442;-63
2022/10/02 02:32:53;;;;;;;;;;;12.80;99.90;;;;;;5085903;28;19969;-63
2022/10/02 02:35:23;;;;;;;;;;;12.80;99.90;;;;;;5087592;28;20061;-64
2022/10/02 02:37:53;;;;;;;;;;;12.90;99.90;;;;;;5092225;28;20424;-63
2022/10/02 02:40:22;;;;;;;;;;;12.90;99.90;;;;;;5092880;28;19998;-64
2022/10/02 02:42:54;;;;;;;;;;;13.00;99.90;;;;;;5097322;28;20058;-63
2022/10/02 02:45:25;;;;;;;;;;;13.00;99.90;;;;;;5092986;28;20426;-63
2022/10/02 02:47:54;;;;;;;;;;;13.00;99.90;;;;;;5092890;28;19977;-63
2022/10/02 02:50:23;;;;;;;;;;;13.00;99.90;;;;;;5092428;28;19966;-63
2022/10/02 02:52:52;;;;;;;;;;;13.10;99.90;;;;;;5091187;28;19965;-63
2022/10/02 02:55:22;;;;;;;;;;;13.10;99.90;;;;;;5092134;28;20486;-63
2022/10/02 02:57:52;;;;;;;;;;;13.20;99.90;;;;;;5091646;28;20044;-62
2022/10/02 03:00:20;;;;;;;;;;;13.10;99.90;;;;;;5090046;28;19969;-64
2022/10/02 03:02:53;;;;;;;;;;;13.10;99.90;;;;;;5090220;28;20333;-63
2022/10/02 03:05:23;;;;;;;;;;;13.20;99.90;;;;;;5090420;28;19959;-64
2022/10/02 03:07:51;;;;;;;;;;;13.20;99.90;;;;;;5089069;28;19970;-64
2022/10/02 03:10:23;;;;;;;;;;;13.10;99.90;;;;;;5089881;28;19963;-63
2022/10/02 03:12:57;;;;;;;;;;;13.20;99.90;;;;;;5089852;28;19965;-63
2022/10/02 03:15:27;;;;;;;;;;;13.20;99.90;;;;;;5090206;28;20060;-63
2022/10/02 03:18:08;;;;;;;;;;;13.20;99.90;;;;;;5090962;28;19962;-63
2022/10/02 03:20:40;;;;;;;;;;;13.30;99.90;;;;;;5090995;28;19965;-63
2022/10/02 03:23:15;;;;;;;;;;;13.30;99.90;;;;;;5087591;28;20463;-63
2022/10/02 03:25:46;;;;;;;;;;;13.30;99.90;;;;;;5090967;28;19973;-63
2022/10/02 03:28:15;;;;;;;;;;;13.40;99.90;;;;;;5088288;28;20431;-63
2022/10/02 03:31:03;;;;;;;;;;;13.30;99.90;;;;;;5095317;28;19973;-63
2022/10/02 03:33:35;;;;;;;;;;;13.40;99.90;;;;;;5090969;28;20007;-62
2022/10/02 03:36:03;;;;;;;;;;;13.40;99.90;;;;;;5091662;28;19961;-63
2022/10/02 03:38:31;;;;;;;;;;;13.40;99.90;;;;;;5090359;28;20320;-63
2022/10/02 03:40:59;;;;;;;;;;;13.40;99.90;;;;;;5094216;28;19967;-63
2022/10/02 03:43:27;;;;;;;;;;;13.40;99.90;;;;;;5090418;28;20525;-62
2022/10/02 03:45:56;;;;;;;;;;;13.40;99.90;;;;;;5091437;28;19985;-63
2022/10/02 03:48:24;;;;;;;;;;;13.30;99.90;;;;;;5090217;28;19961;-63
2022/10/02 03:50:53;;;;;;;;;;;13.30;99.90;;;;;;5090979;28;19965;-63
2022/10/02 03:53:22;;;;;;;;;;;13.30;99.90;;;;;;5088873;28;20390;-63
2022/10/02 03:55:53;;;;;;;;;;;13.30;99.90;;;;;;5089935;28;20014;-63
2022/10/02 03:58:21;;;;;;;;;;;13.40;99.90;;;;;;5091245;28;19958;-62
2022/10/02 04:00:52;;;;;;;;;;;13.30;99.90;;;;;;5087799;28;19962;-63
2022/10/02 04:03:22;;;;;;;;;;;13.30;99.90;;;;;;5090766;28;20469;-63
2022/10/02 04:05:51;;;;;;;;;;;13.40;99.90;;;;;;5084932;28;20015;-63
2022/10/02 04:08:22;;;;;;;;;;;13.40;99.90;;;;;;5087880;28;19970;-63
2022/10/02 04:10:53;;;;;;;;;;;13.40;99.90;;;;;;5084289;28;19962;-63
2022/10/02 04:13:23;;;;;;;;;;;13.40;99.90;;;;;;5089418;28;20441;-63
2022/10/02 04:15:56;;;;;;;;;;;13.50;99.90;;;;;;5091705;28;20433;-63
2022/10/02 04:18:26;;;;;;;;;;;13.50;99.90;;;;;;5089512;28;19962;-63
2022/10/02 04:20:58;;;;;;;;;;;13.60;99.90;;;;;;5090466;28;19966;-63
2022/10/02 04:23:29;;;;;;;;;;;13.70;99.90;;;;;;5087564;28;19965;-63
2022/10/02 04:25:59;;;;;;;;;;;13.60;99.90;;;;;;5087923;28;19970;-63
2022/10/02 04:28:30;;;;;;;;;;;13.70;99.90;;;;;;5090770;28;19963;-63
2022/10/02 04:31:00;;;;;;;;;;;13.60;99.90;;;;;;5071641;28;20061;-63
2022/10/02 04:33:28;;;;;;;;;;;13.60;99.90;;;;;;5090220;28;19962;-63
2022/10/02 04:36:02;;;;;;;;;;;13.60;99.90;;;;;;5089445;28;20017;-63
2022/10/02 04:38:43;;;;;;;;;;;13.60;99.90;;;;;;5093437;28;19962;-63
2022/10/02 04:41:19;;;;;;;;;;;13.50;99.90;;;;;;5097278;28;20047;-63
2022/10/02 04:43:51;;;;;;;;;;;13.50;99.90;;;;;;5089650;28;19970;-63
2022/10/02 04:46:26;;;;;;;;;;;13.50;99.90;;;;;;5095347;28;19973;-63
2022/10/02 04:49:11;;;;;;;;;;;13.40;99.90;;;;;;5094333;28;20336;-63
2022/10/02 04:51:51;;;;;;;;;;;13.50;99.90;;;;;;5091909;28;19965;-63
2022/10/02 04:54:41;;;;;;;;;;;13.40;99.90;;;;;;5091692;28;19965;-62
2022/10/02 04:57:18;;;;;;;;;;;13.50;99.90;;;;;;5094682;28;19961;-63
2022/10/02 04:59:52;;;;;;;;;;;13.40;99.90;;;;;;5092979;28;20078;-62
2022/10/02 05:02:29;;;;;;;;;;;13.40;99.90;;;;;;5091902;28;20597;-63
2022/10/02 05:05:09;;;;;;;;;;;13.40;99.90;;;;;;5093841;28;19962;-62
2022/10/02 05:07:54;;;;;;;;;;;13.40;99.90;;;;;;5091643;28;19970;-63
2022/10/02 05:10:32;;;;;;;;;;;13.30;99.90;;;;;;5079830;28;19966;-63
2022/10/02 05:13:07;;;;;;;;;;;13.40;99.90;;;;;;5093263;28;19962;-63
2022/10/02 05:15:46;;;;;;;;;;;13.30;99.90;;;;;;5092212;28;19962;-63
2022/10/02 05:18:26;;;;;;;;;;;13.30;99.90;;;;;;5094096;28;20379;-63
2022/10/02 05:21:06;;;;;;;;;;;13.30;99.90;;;;;;5085731;28;20462;-63
2022/10/02 05:23:44;;;;;;;;;;;13.20;99.90;;;;;;5089464;28;19970;-63
2022/10/02 05:26:26;;;;;;;;;;;13.10;99.90;;;;;;5090557;28;19965;-63
2022/10/02 05:29:02;;;;;;;;;;;13.10;99.90;;;;;;5089345;28;19962;-63
2022/10/02 05:31:34;;;;;;;;;;;13.10;99.90;;;;;;5088419;28;19962;-63
2022/10/02 05:34:11;;;;;;;;;;;13.10;99.90;;;;;;5087280;28;19977;-63
2022/10/02 05:37:01;;;;;;;;;;;13.20;99.90;;;;;;5089439;28;20053;-63
2022/10/02 05:39:31;;;;;;;;;;;13.20;99.90;;;;;;5089641;28;19958;-64
2022/10/02 05:42:03;;;;;;;;;;;13.10;99.90;;;;;;5117337;22;19962;-62
2022/10/02 05:44:36;;;;;;;;;;;13.10;99.90;;;;;;5095911;28;19988;-62
2022/10/02 05:47:07;;;;;;;;;;;13.10;99.90;;;;;;5087595;28;19958;-64
2022/10/02 05:49:36;;;;;;;;;;;13.20;99.90;;;;;;5094170;28;19970;-63
2022/10/02 05:52:05;;;;;;;;;;;13.10;99.90;;;;;;5097994;28;20634;-64
2022/10/02 05:54:41;;;;;;;;;;;13.10;99.90;;;;;;5112026;27;20332;-63
2022/10/02 05:57:13;;;;;;;;;;;13.10;99.90;;;;;;5118971;27;19966;-64
2022/10/02 05:59:44;;;;;;;;;;;13.20;99.90;;;;;;5112346;27;19957;-64
2022/10/02 06:02:17;;;;;;;;;;;13.20;99.90;;;;;;5108180;28;19968;-63
2022/10/02 06:04:49;;;;;;;;;;;13.10;99.90;;;;;;5105150;27;19966;-64
2022/10/02 06:07:17;;;;;;;;;;;13.10;99.90;;;;;;5122138;27;19965;-62
2022/10/02 06:09:47;;;;;;;;;;;13.20;99.90;;;;;;5108753;27;20101;-63
2022/10/02 06:12:17;;;;;;;;;;;13.30;99.90;;;;;;5128101;27;19968;-63
2022/10/02 06:14:47;;;;;;;;;;;13.30;99.90;;;;;;5116995;27;19964;-64
2022/10/02 06:17:19;;;;;;;;;;;13.30;99.90;;;;;;5114716;27;20033;-63
2022/10/02 06:19:51;;;;;;;;;;;13.30;99.90;;;;;;5115218;27;20334;-63
2022/10/02 06:22:21;;;;;;;;;;;13.40;99.90;;;;;;5118394;27;20471;-64
2022/10/02 06:24:51;;;;;;;;;;;13.30;99.90;;;;;;5111185;27;19972;-64
2022/10/02 06:27:23;;;;;;;;;;;13.30;99.90;;;;;;5113177;28;19970;-64
2022/10/02 06:29:55;;;;;;;;;;;13.40;99.90;;;;;;5120516;27;20052;-64
2022/10/02 06:32:29;;;;;;;;;;;13.30;99.90;;;;;;5108222;27;19962;-65
2022/10/02 06:34:56;;;;;;;;;;;13.30;99.90;;;;;;5115728;27;20057;-64
2022/10/02 06:37:39;;;;;;;;;;;13.30;99.90;;;;;;5110718;27;19962;-64
2022/10/02 06:40:16;;;;;;;;;;;13.20;99.90;;;;;;5107059;27;19965;-62
2022/10/02 06:42:49;;;;;;;;;;;13.20;99.90;;;;;;5109283;27;19958;-62
2022/10/02 06:45:24;;;;;;;;;;;13.20;99.90;;;;;;5115831;27;20360;-61
2022/10/02 06:48:01;;;;;;;;;;;13.20;99.90;;;;;;5103085;27;20053;-61
2022/10/02 06:50:44;;;;;;;;;;;13.10;99.90;;;;;;5122160;27;20299;-62
2022/10/02 06:53:18;;;;;;;;;;;13.00;99.90;;;;;;5110039;27;19961;-62
2022/10/02 06:55:50;;;;;;;;;;;13.10;99.90;;;;;;5119355;27;20380;-62
2022/10/02 06:58:30;;;;;;;;;;;13.10;99.90;;;;;;5116452;27;19968;-62
2022/10/02 07:01:04;;;;;;;;;;;13.10;99.90;;;;;;5114989;27;20312;-61
2022/10/02 07:03:41;;;;;;;;;;;13.10;99.90;;;;;;5114107;27;19973;-62
2022/10/02 07:06:13;;;;;;;;;;;13.10;99.90;;;;;;5116263;27;19984;-63
2022/10/02 07:08:52;;;;;;;;;;;13.00;99.90;;;;;;5118727;27;20310;-64
2022/10/02 07:11:23;;;;;;;;;;;13.00;99.90;;;;;;5114064;27;19964;-63
2022/10/02 07:13:57;;;;;;;;;;;13.10;99.90;;;;;;5130641;27;20060;-63
2022/10/02 07:16:40;;;;;;;;;;;13.20;99.90;;;;;;5109181;27;19958;-63
2022/10/02 07:19:16;;;;;;;;;;;13.60;99.90;;;;;;5124238;27;19996;-62
2022/10/02 07:21:47;;;;;;;;;;;13.90;99.90;;;;;;5110160;27;20080;-63
2022/10/02 07:24:25;;;;;;;;;;;14.00;99.90;;;;;;5127378;27;19962;-63
2022/10/02 07:26:55;;;;;;;;;;;14.10;99.90;;;;;;5095391;28;19959;-63
2022/10/02 07:29:32;;;;;;;;;;;14.10;99.90;;;;;;5098570;28;19963;-63
2022/10/02 07:32:22;;;;;;;;;;;14.00;99.90;;;;;;5118234;27;20044;-63
2022/10/02 07:34:57;;;;;;;;;;;14.10;99.90;;;;;;5106028;27;19968;-64
2022/10/02 07:37:27;;;;;;;;;;;14.30;99.90;;;;;;5107380;27;19981;-64
2022/10/02 07:40:05;;;;;;;;;;;14.30;99.90;;;;;;5116427;27;19972;-63
2022/10/02 07:42:41;;;;;;;;;;;14.10;99.90;;;;;;5101163;27;19958;-63
2022/10/02 07:45:23;;;;;;;;;;;13.90;99.90;;;;;;5123319;27;19972;-63
2022/10/02 07:47:57;;;;;;;;;;;13.70;99.90;;;;;;5107563;27;19969;-63
2022/10/02 07:50:28;;;;;;;;;;;13.60;99.90;;;;;;5101124;28;19958;-63
2022/10/02 07:53:02;;;;;;;;;;;13.60;99.90;;;;;;5093363;28;20336;-63
2022/10/02 07:55:31;;;;;;;;;;;13.50;99.90;;;;;;5109326;28;20057;-63
2022/10/02 07:58:01;;;;;;;;;;;13.60;99.90;;;;;;5114479;27;19961;-63
2022/10/02 08:00:30;;;;;;;;;;;13.50;99.90;;;;;;5113981;28;19962;-64
2022/10/02 08:03:01;;;;;;;;;;;13.50;99.90;;;;;;5103783;28;20307;-61
2022/10/02 08:05:30;;;;;;;;;;;13.50;99.90;;;;;;5106762;28;19962;-62
2022/10/02 08:08:00;;;;;;;;;;;13.50;99.90;;;;;;5113096;28;19965;-61
2022/10/02 08:10:31;;;;;;;;;;;13.50;99.90;;;;;;5109322;28;19958;-63
2022/10/02 08:13:04;;;;;;;;;;;13.50;99.90;;;;;;5118217;27;19965;-61
2022/10/02 08:15:34;;;;;;;;;;;13.50;99.90;;;;;;5114344;27;20421;-61
2022/10/02 08:18:06;;;;;;;;;;;13.40;99.90;;;;;;5119916;27;20393;-61
2022/10/02 08:20:54;;;;;;;;;;;13.40;99.90;;;;;;5118091;27;19966;-60
2022/10/02 08:23:25;;;;;;;;;;;13.40;99.90;;;;;;5115955;27;19957;-61
2022/10/02 08:25:56;;;;;;;;;;;13.50;99.90;;;;;;5115245;27;19977;-61
2022/10/02 08:28:26;;;;;;;;;;;13.50;99.90;;;;;;5102661;27;19957;-61
2022/10/02 08:30:54;;;;;;;;;;;13.50;99.90;;;;;;5119593;27;19996;-62
2022/10/02 08:33:24;;;;;;;;;;;13.50;99.90;;;;;;5123461;27;20434;-61
2022/10/02 08:36:11;;;;;;;;;;;13.60;99.90;;;;;;5116549;27;20333;-61
2022/10/02 08:38:41;;;;;;;;;;;13.60;99.90;;;;;;5115564;27;19966;-61
2022/10/02 08:41:38;;;;;;;;;;;13.60;99.90;;;;;;5117104;27;19966;-61
2022/10/02 08:44:25;;;;;;;;;;;13.60;99.90;;;;;;5114458;28;20307;-61
2022/10/02 08:47:13;;;;;;;;;;;13.70;99.90;;;;;;5109247;28;19969;-61
2022/10/02 08:49:58;;;;;;;;;;;13.70;99.90;;;;;;5104927;28;20430;-62
2022/10/02 08:52:42;;;;;;;;;;;13.70;99.90;;;;;;5113587;27;20044;-61
2022/10/02 08:55:25;;;;;;;;;;;13.70;99.90;;;;;;5114530;27;19970;-62
2022/10/02 08:58:17;;;;;;;;;;;13.70;99.90;;;;;;5110254;27;19957;-62
2022/10/02 09:00:49;;;;;;;;;;;13.70;99.90;;;;;;5102589;27;19962;-62
2022/10/02 09:03:44;;;;;;;;;;;13.70;99.90;;;;;;5110746;27;20430;-62
2022/10/02 09:06:35;;;;;;;;;;;13.70;99.90;;;;;;5111654;27;19966;-62
2022/10/02 09:09:19;;;;;;;;;;;13.70;99.90;;;;;;5111504;27;19962;-62
2022/10/02 09:11:56;;;;;;;;;;;13.70;99.90;;;;;;5105994;28;20441;-62
2022/10/02 09:14:37;;;;;;;;;;;13.80;99.90;;;;;;5112998;27;19961;-62
2022/10/02 09:17:15;;;;;;;;;;;13.80;99.90;;;;;;5112790;27;20371;-62
2022/10/02 09:19:48;;;;;;;;;;;13.80;99.90;;;;;;5112300;27;20446;-62
2022/10/02 09:22:33;;;;;;;;;;;13.90;99.90;;;;;;5111584;27;19958;-62
2022/10/02 09:25:15;;;;;;;;;;;13.90;99.90;;;;;;5107030;28;19969;-62
2022/10/02 09:28:03;;;;;;;;;;;14.00;99.90;;;;;;5117146;27;19965;-62
2022/10/02 09:30:39;;;;;;;;;;;14.00;99.90;;;;;;5106077;27;20508;-62
2022/10/02 09:33:22;;;;;;;;;;;14.00;99.90;;;;;;5119877;27;19965;-62
2022/10/02 09:36:00;;;;;;;;;;;14.00;99.90;;;;;;5107626;28;20340;-62
2022/10/02 09:38:52;;;;;;;;;;;14.00;99.90;;;;;;5090317;27;20949;-60
2022/10/02 09:41:38;;;;;;;;;;;14.00;99.90;;;;;;5108791;27;19957;-61
2022/10/02 09:44:30;;;;;;;;;;;14.00;99.90;;;;;;5096746;28;19958;-62
2022/10/02 09:47:18;;;;;;;;;;;14.00;99.90;;;;;;5072091;28;19962;-61
2022/10/02 09:50:02;;;;;;;;;;;14.00;99.90;;;;;;5088383;28;19976;-62
2022/10/02 09:52:45;;;;;;;;;;;14.00;99.90;;;;;;5092249;28;20104;-61
2022/10/02 09:55:37;;;;;;;;;;;14.00;99.90;;;;;;5096961;28;19963;-61
2022/10/02 09:58:20;;;;;;;;;;;14.00;99.90;;;;;;5098660;28;19958;-62
2022/10/02 10:00:53;;;;;;;;;;;14.00;99.90;;;;;;5103400;28;20047;-62
2022/10/02 10:03:27;;;;;;;;;;;14.00;99.90;;;;;;5103879;28;19977;-62
2022/10/02 10:06:09;;;;;;;;;;;14.00;99.90;;;;;;5097300;28;19976;-63
2022/10/02 10:08:56;;;;;;;;;;;14.00;99.90;;;;;;5100717;28;19958;-63
2022/10/02 10:11:38;;;;;;;;;;;14.00;99.90;;;;;;5099467;28;20044;-61
2022/10/02 10:14:24;;;;;;;;;;;14.10;99.90;;;;;;5103753;28;20016;-62
2022/10/02 10:17:09;;;;;;;;;;;14.10;99.90;;;;;;5096901;28;19968;-62
2022/10/02 10:19:51;;;;;;;;;;;14.10;99.90;;;;;;5045089;28;20052;-62
2022/10/02 10:22:31;;;;;;;;;;;14.10;99.90;;;;;;5083575;28;20625;-62
2022/10/02 10:25:17;;;;;;;;;;;14.10;99.90;;;;;;5084697;28;19966;-61
2022/10/02 10:28:03;;;;;;;;;;;14.00;99.90;;;;;;5090232;28;20414;-62
2022/10/02 10:30:43;;;;;;;;;;;14.00;99.90;;;;;;5092222;28;19964;-61
2022/10/02 10:33:23;;;;;;;;;;;14.10;99.90;;;;;;5088461;28;19965;-62
2022/10/02 10:36:03;;;;;;;;;;;14.20;99.90;;;;;;5084344;28;20056;-62
2022/10/02 10:38:44;;;;;;;;;;;14.20;99.90;;;;;;5098385;28;19980;-61
2022/10/02 10:41:25;;;;;;;;;;;14.20;99.90;;;;;;5096721;28;19957;-62
2022/10/02 10:44:10;;;;;;;;;;;14.20;99.90;;;;;;5088897;28;20003;-62
2022/10/02 10:46:49;;;;;;;;;;;14.30;99.90;;;;;;5092195;28;19966;-62
2022/10/02 10:49:29;;;;;;;;;;;14.40;99.90;;;;;;5103814;28;19962;-62
2022/10/02 10:52:06;;;;;;;;;;;14.40;99.90;;;;;;5093309;28;19965;-62
2022/10/02 10:54:54;;;;;;;;;;;14.30;99.90;;;;;;5099555;28;20333;-62
2022/10/02 10:57:25;;;;;;;;;;;14.30;99.90;;;;;;5088917;28;19959;-62
2022/10/02 11:00:14;;;;;;;;;;;14.40;99.90;;;;;;5097287;28;19969;-61
2022/10/02 11:03:00;;;;;;;;;;;14.30;99.90;;;;;;5089770;28;19958;-60
2022/10/02 11:05:39;;;;;;;;;;;14.30;99.90;;;;;;5087472;28;19965;-61
2022/10/02 11:08:17;;;;;;;;;;;14.30;99.90;;;;;;5091549;28;20321;-62
2022/10/02 11:10:52;;;;;;;;;;;14.30;99.90;;;;;;5092283;28;19985;-62
2022/10/02 11:13:29;;;;;;;;;;;14.30;99.90;;;;;;5091183;28;19964;-62
2022/10/02 11:16:13;;;;;;;;;;;14.30;99.90;;;;;;5096563;28;20357;-63
2022/10/02 11:19:05;;;;;;;;;;;14.30;99.90;;;;;;5086601;28;20384;-62
2022/10/02 11:21:43;;;;;;;;;;;14.30;99.90;;;;;;5032950;28;20471;-61
2022/10/02 11:24:21;;;;;;;;;;;14.40;99.90;;;;;;5089911;28;20453;-62
2022/10/02 11:27:01;;;;;;;;;;;14.50;99.90;;;;;;5090514;28;19962;-62
2022/10/02 11:29:45;;;;;;;;;;;14.40;99.90;;;;;;5091478;28;20441;-61
2022/10/02 11:32:27;;;;;;;;;;;14.40;99.90;;;;;;5087687;28;19962;-62
2022/10/02 11:35:12;;;;;;;;;;;14.40;99.90;;;;;;5086202;28;20421;-62
2022/10/02 11:37:58;;;;;;;;;;;14.30;99.90;;;;;;5090898;28;20434;-62
2022/10/02 11:40:38;;;;;;;;;;;14.30;99.90;;;;;;5090942;28;20049;-62
2022/10/02 11:43:18;;;;;;;;;;;14.30;99.90;;;;;;5105017;22;20337;-67
2022/10/02 11:46:02;;;;;;;;;;;14.30;99.90;;;;;;5065558;28;19977;-66
2022/10/02 11:48:41;;;;;;;;;;;14.30;99.90;;;;;;5071570;28;19993;-66
2022/10/02 11:51:24;;;;;;;;;;;14.20;99.90;;;;;;5070704;28;19962;-66
2022/10/02 11:53:58;;;;;;;;;;;14.20;99.90;;;;;;5065644;28;19961;-66
2022/10/02 11:56:41;;;;;;;;;;;14.20;99.90;;;;;;5069822;28;19963;-64
2022/10/02 11:59:18;;;;;;;;;;;14.20;99.90;;;;;;5069022;28;19972;-66
2022/10/02 12:01:52;;;;;;;;;;;14.30;99.90;;;;;;5075941;28;19962;-65
2022/10/02 12:04:29;;;;;;;;;;;14.30;99.90;;;;;;5074366;28;19965;-66
2022/10/02 12:07:05;;;;;;;;;;;14.30;99.90;;;;;;5060941;28;19959;-66
2022/10/02 12:09:37;;;;;;;;;;;14.30;99.90;;;;;;5068414;28;19960;-65
2022/10/02 12:12:11;;;;;;;;;;;14.40;99.90;;;;;;5071452;28;19969;-65
2022/10/02 12:14:43;;;;;;;;;;;14.50;99.90;;;;;;5071352;28;19967;-66
2022/10/02 12:17:18;;;;;;;;;;;14.50;99.90;;;;;;5068278;28;20012;-67
2022/10/02 12:28:24;;;;;;;;;;;14.50;99.90;;;;;;5070981;28;19968;-66
2022/10/02 12:31:00;;;;;;;;;;;14.50;99.90;;;;;;5071074;28;19962;-66
2022/10/02 12:33:33;;;;;;;;;;;14.50;99.90;;;;;;5065781;28;19962;-65
2022/10/02 12:36:16;;;;;;;;;;;14.50;99.90;;;;;;5071163;28;19969;-66
2022/10/02 12:38:51;;;;;;;;;;;14.60;99.90;;;;;;5070357;28;19977;-66
2022/10/02 12:41:24;;;;;;;;;;;14.70;99.90;;;;;;5075207;28;19958;-66
2022/10/02 12:44:10;;;;;;;;;;;14.80;99.90;;;;;;5086133;28;19970;-66
2022/10/02 12:46:46;;;;;;;;;;;14.90;99.90;;;;;;5089000;28;19962;-66
2022/10/02 12:49:20;;;;;;;;;;;15.00;99.90;;;;;;5094937;28;19969;-65
2022/10/02 12:51:58;;;;;;;;;;;14.90;99.90;;;;;;5096523;28;19961;-66
2022/10/02 12:54:39;;;;;;;;;;;14.90;99.90;;;;;;5090775;28;19992;-65
2022/10/02 13:00:16;;;;;;;;;;;14.80;99.90;;;;;;5082959;28;19966;-66
2022/10/02 13:02:58;;;;;;;;;;;14.90;99.90;;;;;;5086829;28;19969;-66
2022/10/02 13:05:42;;;;;;;;;;;15.00;99.90;;;;;;5076991;28;20295;-67
2022/10/02 13:08:38;;;;;;;;;;;15.10;99.90;;;;;;5086958;28;20049;-66
2022/10/02 13:11:11;;;;;;;;;;;15.00;99.90;;;;;;5090385;28;19969;-66
2022/10/02 13:13:50;;;;;;;;;;;15.00;99.90;;;;;;5090337;28;19964;-67
2022/10/02 13:16:23;;;;;;;;;;;15.10;99.90;;;;;;5086990;28;19980;-66
2022/10/02 13:18:58;;;;;;;;;;;15.10;99.90;;;;;;5087223;28;19975;-66
2022/10/02 13:21:34;;;;;;;;;;;15.10;99.90;;;;;;5089358;28;19971;-66
2022/10/02 13:24:15;;;;;;;;;;;15.00;99.90;;;;;;5085944;28;19962;-66
2022/10/02 13:26:47;;;;;;;;;;;14.90;99.90;;;;;;5090765;28;19969;-66
2022/10/02 13:29:22;;;;;;;;;;;14.90;99.90;;;;;;5088646;28;19977;-66
2022/10/02 13:31:55;;;;;;;;;;;14.90;99.90;;;;;;5083636;28;19975;-66
2022/10/02 13:34:36;;;;;;;;;;;14.90;99.90;;;;;;5085066;28;19974;-66
2022/10/02 13:37:14;;;;;;;;;;;14.80;99.90;;;;;;5083219;28;20023;-66
2022/10/02 13:39:49;;;;;;;;;;;14.70;99.90;;;;;;5079218;28;20442;-66
2022/10/02 13:42:22;;;;;;;;;;;14.70;99.90;;;;;;5084959;28;19980;-66
2022/10/02 13:44:54;;;;;;;;;;;14.80;99.90;;;;;;5077711;28;19974;-66
2022/10/02 13:47:30;;;;;;;;;;;14.70;99.90;;;;;;5080361;28;19970;-67
2022/10/02 13:50:07;;;;;;;;;;;14.80;99.90;;;;;;5076902;28;21113;-66
2022/10/02 13:52:39;;;;;;;;;;;14.80;99.90;;;;;;5075443;28;20012;-66
2022/10/02 13:55:12;;;;;;;;;;;14.80;99.90;;;;;;5075536;28;20438;-67
2022/10/02 13:57:50;;;;;;;;;;;14.90;99.90;;;;;;5079312;28;19969;-66
2022/10/02 14:00:22;;;;;;;;;;;14.90;99.90;;;;;;5076991;28;19966;-66
2022/10/02 14:02:58;;;;;;;;;;;14.90;99.90;;;;;;5077792;28;20079;-66
2022/10/02 14:05:31;;;;;;;;;;;14.90;99.90;;;;;;5076225;28;19970;-63
2022/10/02 14:08:05;;;;;;;;;;;14.90;99.90;;;;;;5079073;28;19984;-64
2022/10/02 14:10:39;;;;;;;;;;;14.80;99.90;;;;;;5077856;28;19973;-65
2022/10/02 14:13:15;;;;;;;;;;;14.90;99.90;;;;;;5080367;28;19977;-64
2022/10/02 14:15:51;;;;;;;;;;;14.90;99.90;;;;;;5075312;28;19970;-64
2022/10/02 14:18:34;;;;;;;;;;;15.00;99.90;;;;;;5080752;28;19990;-64
2022/10/02 14:21:08;;;;;;;;;;;15.00;99.90;;;;;;5077567;28;19965;-63
2022/10/02 14:23:53;;;;;;;;;;;15.00;99.90;;;;;;5081169;28;19963;-64
2022/10/02 14:26:26;;;;;;;;;;;15.00;99.90;;;;;;5075837;28;19974;-64
2022/10/02 14:29:03;;;;;;;;;;;15.10;99.90;;;;;;5079083;28;19974;-65
2022/10/02 14:31:50;;;;;;;;;;;15.20;99.90;;;;;;5077621;28;19997;-65
2022/10/02 14:34:29;;;;;;;;;;;15.20;99.90;;;;;;5073490;28;20072;-65
2022/10/02 14:37:01;;;;;;;;;;;15.20;99.90;;;;;;5077543;28;19980;-65
2022/10/02 14:39:31;;;;;;;;;;;15.30;99.90;;;;;;5080519;28;19976;-65
2022/10/02 14:42:07;;;;;;;;;;;15.20;99.90;;;;;;5078105;28;20461;-65
2022/10/02 14:44:43;;;;;;;;;;;15.10;99.90;;;;;;5074788;28;19975;-65
2022/10/02 14:47:27;;;;;;;;;;;15.20;99.90;;;;;;5075992;28;19974;-65
2022/10/02 14:50:02;;;;;;;;;;;15.10;99.90;;;;;;5079928;28;20438;-65
2022/10/02 14:52:57;;;;;;;;;;;15.10;99.90;;;;;;5077029;28;19966;-64
2022/10/02 14:55:30;;;;;;;;;;;15.10;99.90;;;;;;5051052;28;20437;-64
2022/10/02 14:58:11;;;;;;;;;;;15.10;99.90;;;;;;5091045;28;19977;-65
2022/10/02 15:00:42;;;;;;;;;;;15.00;99.90;;;;;;5090898;28;20432;-64
2022/10/02 15:03:19;;;;;;;;;;;15.10;99.90;;;;;;5093644;28;19958;-64
2022/10/02 15:05:54;;;;;;;;;;;15.00;99.90;;;;;;5090302;28;20012;-64
2022/10/02 15:08:24;;;;;;;;;;;15.00;99.90;;;;;;5092587;28;20346;-64
2022/10/02 15:10:55;;;;;;;;;;;15.00;99.90;;;;;;5089855;28;20421;-65
2022/10/02 15:13:25;;;;;;;;;;;15.00;99.90;;;;;;5086385;28;19966;-65
2022/10/02 15:18:40;;;;;;;;;;;14.90;99.90;;;;;;5097344;28;20008;-65